sensor_id;sensor_type;location;lat;lon;timestamp;temperature;humidity
11491;DHT22;5802;52.832;4.758;2023-03-01T00:00:48;22.90;38.20
11491;DHT22;5802;52.832;4.758;2023-03-01T00:03:16;22.90;38.20
11491;DHT22;5802;52.832;4.758;2023-03-01T00:05:45;22.90;38.20
11491;DHT22;5802;52.832;4.758;2023-03-01T00:08:11;22.90;38.20
11491;DHT22;5802;52.832;4.758;2023-03-01T00:10:38;22.90;38.10
11491;DHT22;5802;52.832;4.758;2023-03-01T00:13:05;22.90;38.10
11491;DHT22;5802;52.832;4.758;2023-03-01T00:15:32;22.90;38.10
11491;DHT22;5802;52.832;4.758;2023-03-01T00:18:00;22.90;38.10
11491;DHT22;5802;52.832;4.758;2023-03-01T00:20:28;22.90;38.10
11491;DHT22;5802;52.832;4.758;2023-03-01T00:22:54;22.90;38.10
11491;DHT22;5802;52.832;4.758;2023-03-01T00:25:21;22.90;38.10
11491;DHT22;5802;52.832;4.758;2023-03-01T00:27:48;22.80;38.10
11491;DHT22;5802;52.832;4.758;2023-03-01T00:30:15;22.80;38.10
11491;DHT22;5802;52.832;4.758;2023-03-01T00:32:42;22.80;38.10
11491;DHT22;5802;52.832;4.758;2023-03-01T00:35:08;22.80;38.10
11491;DHT22;5802;52.832;4.758;2023-03-01T00:37:36;22.80;38.10
11491;DHT22;5802;52.832;4.758;2023-03-01T00:40:04;22.80;38.10
11491;DHT22;5802;52.832;4.758;2023-03-01T00:42:31;22.80;38.10
11491;DHT22;5802;52.832;4.758;2023-03-01T00:44:58;22.80;38.10
11491;DHT22;5802;52.832;4.758;2023-03-01T00:47:24;22.80;38.10
11491;DHT22;5802;52.832;4.758;2023-03-01T00:49:51;22.80;38.10
11491;DHT22;5802;52.832;4.758;2023-03-01T00:52:18;22.80;38.10
11491;DHT22;5802;52.832;4.758;2023-03-01T00:54:46;22.80;38.10
11491;DHT22;5802;52.832;4.758;2023-03-01T00:57:12;22.80;38.10
11491;DHT22;5802;52.832;4.758;2023-03-01T00:59:39;22.80;38.10
11491;DHT22;5802;52.832;4.758;2023-03-01T01:02:06;22.80;38.10
11491;DHT22;5802;52.832;4.758;2023-03-01T01:04:32;22.80;38.10
11491;DHT22;5802;52.832;4.758;2023-03-01T01:06:59;22.80;38.10
11491;DHT22;5802;52.832;4.758;2023-03-01T01:09:25;22.80;38.20
11491;DHT22;5802;52.832;4.758;2023-03-01T01:11:53;22.70;38.10
11491;DHT22;5802;52.832;4.758;2023-03-01T01:14:20;22.70;38.10
11491;DHT22;5802;52.832;4.758;2023-03-01T01:16:47;22.70;38.10
11491;DHT22;5802;52.832;4.758;2023-03-01T01:19:14;22.70;38.10
11491;DHT22;5802;52.832;4.758;2023-03-01T01:21:41;22.70;38.10
11491;DHT22;5802;52.832;4.758;2023-03-01T01:24:09;22.70;38.20
11491;DHT22;5802;52.832;4.758;2023-03-01T01:26:36;22.70;38.10
11491;DHT22;5802;52.832;4.758;2023-03-01T01:29:04;22.70;38.10
11491;DHT22;5802;52.832;4.758;2023-03-01T01:31:32;22.70;38.10
11491;DHT22;5802;52.832;4.758;2023-03-01T01:33:59;22.70;38.10
11491;DHT22;5802;52.832;4.758;2023-03-01T01:36:26;22.70;38.10
11491;DHT22;5802;52.832;4.758;2023-03-01T01:38:53;22.70;38.10
11491;DHT22;5802;52.832;4.758;2023-03-01T01:41:21;22.70;38.70
11491;DHT22;5802;52.832;4.758;2023-03-01T01:43:49;22.70;38.10
11491;DHT22;5802;52.832;4.758;2023-03-01T01:46:38;22.70;38.10
11491;DHT22;5802;52.832;4.758;2023-03-01T01:49:09;22.70;38.10
11491;DHT22;5802;52.832;4.758;2023-03-01T01:51:42;22.70;38.10
11491;DHT22;5802;52.832;4.758;2023-03-01T01:54:13;22.70;38.10
11491;DHT22;5802;52.832;4.758;2023-03-01T01:56:44;22.70;38.10
11491;DHT22;5802;52.832;4.758;2023-03-01T01:59:13;22.70;38.20
11491;DHT22;5802;52.832;4.758;2023-03-01T02:01:42;22.70;38.00
11491;DHT22;5802;52.832;4.758;2023-03-01T02:04:09;22.70;37.90
11491;DHT22;5802;52.832;4.758;2023-03-01T02:06:39;22.70;37.80
11491;DHT22;5802;52.832;4.758;2023-03-01T02:09:12;22.70;37.90
11491;DHT22;5802;52.832;4.758;2023-03-01T02:11:40;22.70;37.90
11491;DHT22;5802;52.832;4.758;2023-03-01T02:14:07;22.70;37.90
11491;DHT22;5802;52.832;4.758;2023-03-01T02:16:34;22.70;37.80
11491;DHT22;5802;52.832;4.758;2023-03-01T02:19:03;22.70;37.90
11491;DHT22;5802;52.832;4.758;2023-03-01T02:21:38;22.70;37.80
11491;DHT22;5802;52.832;4.758;2023-03-01T02:24:18;22.70;37.90
11491;DHT22;5802;52.832;4.758;2023-03-01T02:26:52;22.70;37.90
11491;DHT22;5802;52.832;4.758;2023-03-01T02:29:22;22.70;37.90
11491;DHT22;5802;52.832;4.758;2023-03-01T02:31:49;22.70;37.90
11491;DHT22;5802;52.832;4.758;2023-03-01T02:34:19;22.70;37.90
11491;DHT22;5802;52.832;4.758;2023-03-01T02:36:48;22.70;37.90
11491;DHT22;5802;52.832;4.758;2023-03-01T02:39:31;22.70;37.90
11491;DHT22;5802;52.832;4.758;2023-03-01T02:41:59;22.70;37.90
11491;DHT22;5802;52.832;4.758;2023-03-01T02:44:29;22.70;38.00
11491;DHT22;5802;52.832;4.758;2023-03-01T02:46:56;22.70;37.90
11491;DHT22;5802;52.832;4.758;2023-03-01T02:49:26;22.60;37.80
11491;DHT22;5802;52.832;4.758;2023-03-01T02:52:23;22.70;37.90
11491;DHT22;5802;52.832;4.758;2023-03-01T02:54:57;22.60;37.80
11491;DHT22;5802;52.832;4.758;2023-03-01T02:57:25;22.60;37.80
11491;DHT22;5802;52.832;4.758;2023-03-01T03:00:02;22.60;37.80
11491;DHT22;5802;52.832;4.758;2023-03-01T03:02:33;22.60;37.80
11491;DHT22;5802;52.832;4.758;2023-03-01T03:05:05;22.60;37.80
11491;DHT22;5802;52.832;4.758;2023-03-01T03:07:34;22.60;37.80
11491;DHT22;5802;52.832;4.758;2023-03-01T03:10:02;22.60;37.70
11491;DHT22;5802;52.832;4.758;2023-03-01T03:12:28;22.60;37.70
11491;DHT22;5802;52.832;4.758;2023-03-01T03:14:56;22.60;37.70
11491;DHT22;5802;52.832;4.758;2023-03-01T03:17:23;22.70;37.80
11491;DHT22;5802;52.832;4.758;2023-03-01T03:19:50;22.70;37.80
11491;DHT22;5802;52.832;4.758;2023-03-01T03:22:16;22.70;37.70
11491;DHT22;5802;52.832;4.758;2023-03-01T03:24:43;22.70;37.70
11491;DHT22;5802;52.832;4.758;2023-03-01T03:27:10;22.70;37.70
11491;DHT22;5802;52.832;4.758;2023-03-01T03:29:37;22.60;37.60
11491;DHT22;5802;52.832;4.758;2023-03-01T03:32:05;22.60;37.60
11491;DHT22;5802;52.832;4.758;2023-03-01T03:34:32;22.70;37.60
11491;DHT22;5802;52.832;4.758;2023-03-01T03:36:59;22.70;37.60
11491;DHT22;5802;52.832;4.758;2023-03-01T03:39:26;22.60;37.50
11491;DHT22;5802;52.832;4.758;2023-03-01T03:41:53;22.60;37.50
11491;DHT22;5802;52.832;4.758;2023-03-01T03:44:21;22.60;37.50
11491;DHT22;5802;52.832;4.758;2023-03-01T03:46:47;22.60;37.60
11491;DHT22;5802;52.832;4.758;2023-03-01T03:49:15;22.60;37.50
11491;DHT22;5802;52.832;4.758;2023-03-01T03:51:42;22.60;37.50
11491;DHT22;5802;52.832;4.758;2023-03-01T03:54:11;22.60;37.50
11491;DHT22;5802;52.832;4.758;2023-03-01T03:56:38;22.60;37.50
11491;DHT22;5802;52.832;4.758;2023-03-01T03:59:04;22.60;37.50
11491;DHT22;5802;52.832;4.758;2023-03-01T04:01:31;22.60;37.50
11491;DHT22;5802;52.832;4.758;2023-03-01T04:03:58;22.60;37.50
11491;DHT22;5802;52.832;4.758;2023-03-01T04:06:30;22.60;37.50
11491;DHT22;5802;52.832;4.758;2023-03-01T04:08:57;22.60;37.50
11491;DHT22;5802;52.832;4.758;2023-03-01T04:11:26;22.60;37.50
11491;DHT22;5802;52.832;4.758;2023-03-01T04:13:56;22.60;37.50
11491;DHT22;5802;52.832;4.758;2023-03-01T04:16:23;22.60;37.50
11491;DHT22;5802;52.832;4.758;2023-03-01T04:18:50;22.60;37.50
11491;DHT22;5802;52.832;4.758;2023-03-01T04:21:17;22.60;37.50
11491;DHT22;5802;52.832;4.758;2023-03-01T04:23:47;22.60;37.50
11491;DHT22;5802;52.832;4.758;2023-03-01T04:26:14;22.60;37.40
11491;DHT22;5802;52.832;4.758;2023-03-01T04:28:41;22.60;37.40
11491;DHT22;5802;52.832;4.758;2023-03-01T04:31:12;22.60;37.40
11491;DHT22;5802;52.832;4.758;2023-03-01T04:33:41;22.60;37.40
11491;DHT22;5802;52.832;4.758;2023-03-01T04:36:11;22.60;37.40
11491;DHT22;5802;52.832;4.758;2023-03-01T04:38:38;22.60;37.40
11491;DHT22;5802;52.832;4.758;2023-03-01T04:41:08;22.60;37.30
11491;DHT22;5802;52.832;4.758;2023-03-01T04:43:35;22.60;37.30
11491;DHT22;5802;52.832;4.758;2023-03-01T04:46:04;22.60;37.30
11491;DHT22;5802;52.832;4.758;2023-03-01T04:48:31;22.60;37.30
11491;DHT22;5802;52.832;4.758;2023-03-01T04:50:59;22.60;37.40
11491;DHT22;5802;52.832;4.758;2023-03-01T04:53:26;22.60;37.40
11491;DHT22;5802;52.832;4.758;2023-03-01T04:55:54;22.60;37.40
11491;DHT22;5802;52.832;4.758;2023-03-01T04:58:22;22.60;37.40
11491;DHT22;5802;52.832;4.758;2023-03-01T05:00:48;22.60;37.40
11491;DHT22;5802;52.832;4.758;2023-03-01T05:03:15;22.60;37.50
11491;DHT22;5802;52.832;4.758;2023-03-01T05:05:44;22.60;37.50
11491;DHT22;5802;52.832;4.758;2023-03-01T05:08:10;22.60;37.40
11491;DHT22;5802;52.832;4.758;2023-03-01T05:10:44;22.60;37.50
11491;DHT22;5802;52.832;4.758;2023-03-01T05:13:12;22.60;37.50
11491;DHT22;5802;52.832;4.758;2023-03-01T05:15:41;22.60;37.50
11491;DHT22;5802;52.832;4.758;2023-03-01T05:18:08;22.60;37.50
11491;DHT22;5802;52.832;4.758;2023-03-01T05:20:37;22.60;37.50
11491;DHT22;5802;52.832;4.758;2023-03-01T05:23:04;22.60;37.50
11491;DHT22;5802;52.832;4.758;2023-03-01T05:25:33;22.60;37.50
11491;DHT22;5802;52.832;4.758;2023-03-01T05:28:00;22.60;37.50
11491;DHT22;5802;52.832;4.758;2023-03-01T05:30:30;22.60;37.50
11491;DHT22;5802;52.832;4.758;2023-03-01T05:32:58;22.60;37.50
11491;DHT22;5802;52.832;4.758;2023-03-01T05:35:25;22.60;37.50
11491;DHT22;5802;52.832;4.758;2023-03-01T05:37:52;22.60;37.40
11491;DHT22;5802;52.832;4.758;2023-03-01T05:40:20;22.60;37.40
11491;DHT22;5802;52.832;4.758;2023-03-01T05:42:49;22.60;37.50
11491;DHT22;5802;52.832;4.758;2023-03-01T05:45:17;22.60;37.40
11491;DHT22;5802;52.832;4.758;2023-03-01T05:47:46;22.60;37.40
11491;DHT22;5802;52.832;4.758;2023-03-01T05:50:17;22.60;37.40
11491;DHT22;5802;52.832;4.758;2023-03-01T05:52:46;22.60;37.40
11491;DHT22;5802;52.832;4.758;2023-03-01T05:55:14;22.60;37.50
11491;DHT22;5802;52.832;4.758;2023-03-01T05:57:41;22.60;37.40
11491;DHT22;5802;52.832;4.758;2023-03-01T06:00:09;22.60;37.40
11491;DHT22;5802;52.832;4.758;2023-03-01T06:02:37;22.60;37.40
11491;DHT22;5802;52.832;4.758;2023-03-01T06:05:04;22.60;37.50
11491;DHT22;5802;52.832;4.758;2023-03-01T06:07:33;22.60;37.40
11491;DHT22;5802;52.832;4.758;2023-03-01T06:10:00;22.60;37.40
11491;DHT22;5802;52.832;4.758;2023-03-01T06:12:30;22.60;37.40
11491;DHT22;5802;52.832;4.758;2023-03-01T06:14:57;22.60;37.40
11491;DHT22;5802;52.832;4.758;2023-03-01T06:17:23;22.60;37.40
11491;DHT22;5802;52.832;4.758;2023-03-01T06:19:50;22.60;37.30
11491;DHT22;5802;52.832;4.758;2023-03-01T06:22:17;22.60;37.20
11491;DHT22;5802;52.832;4.758;2023-03-01T06:24:45;22.60;37.50
11491;DHT22;5802;52.832;4.758;2023-03-01T06:27:11;22.60;37.40
11491;DHT22;5802;52.832;4.758;2023-03-01T06:29:38;22.60;37.30
11491;DHT22;5802;52.832;4.758;2023-03-01T06:32:05;22.60;37.40
11491;DHT22;5802;52.832;4.758;2023-03-01T06:34:33;22.60;37.40
11491;DHT22;5802;52.832;4.758;2023-03-01T06:37:00;22.60;37.40
11491;DHT22;5802;52.832;4.758;2023-03-01T06:39:30;22.60;37.40
11491;DHT22;5802;52.832;4.758;2023-03-01T06:41:59;22.60;37.40
11491;DHT22;5802;52.832;4.758;2023-03-01T06:44:26;22.60;37.40
11491;DHT22;5802;52.832;4.758;2023-03-01T06:46:53;22.60;37.40
11491;DHT22;5802;52.832;4.758;2023-03-01T06:49:20;22.60;37.40
11491;DHT22;5802;52.832;4.758;2023-03-01T06:51:47;22.60;37.40
11491;DHT22;5802;52.832;4.758;2023-03-01T06:54:13;22.70;37.50
11491;DHT22;5802;52.832;4.758;2023-03-01T06:56:40;22.70;37.50
11491;DHT22;5802;52.832;4.758;2023-03-01T06:59:08;22.70;37.40
11491;DHT22;5802;52.832;4.758;2023-03-01T07:01:35;22.70;37.40
11491;DHT22;5802;52.832;4.758;2023-03-01T07:04:01;22.70;37.40
11491;DHT22;5802;52.832;4.758;2023-03-01T07:06:28;22.70;37.40
11491;DHT22;5802;52.832;4.758;2023-03-01T07:08:55;22.70;37.40
11491;DHT22;5802;52.832;4.758;2023-03-01T07:11:22;22.70;37.40
11491;DHT22;5802;52.832;4.758;2023-03-01T07:13:49;22.70;37.30
11491;DHT22;5802;52.832;4.758;2023-03-01T07:16:17;22.70;37.30
11491;DHT22;5802;52.832;4.758;2023-03-01T07:18:45;22.70;37.30
11491;DHT22;5802;52.832;4.758;2023-03-01T07:21:13;22.70;37.90
11491;DHT22;5802;52.832;4.758;2023-03-01T07:23:42;22.70;37.30
11491;DHT22;5802;52.832;4.758;2023-03-01T07:26:09;22.70;37.30
11491;DHT22;5802;52.832;4.758;2023-03-01T07:28:35;22.70;37.30
11491;DHT22;5802;52.832;4.758;2023-03-01T07:31:04;22.80;37.30
11491;DHT22;5802;52.832;4.758;2023-03-01T07:33:33;22.80;37.30
11491;DHT22;5802;52.832;4.758;2023-03-01T07:36:00;22.80;37.30
11491;DHT22;5802;52.832;4.758;2023-03-01T07:38:28;22.80;37.30
11491;DHT22;5802;52.832;4.758;2023-03-01T07:40:58;22.80;37.30
11491;DHT22;5802;52.832;4.758;2023-03-01T07:43:25;22.80;37.30
11491;DHT22;5802;52.832;4.758;2023-03-01T07:45:52;22.80;37.30
11491;DHT22;5802;52.832;4.758;2023-03-01T07:48:19;22.80;37.30
11491;DHT22;5802;52.832;4.758;2023-03-01T07:50:47;22.80;37.20
11491;DHT22;5802;52.832;4.758;2023-03-01T07:53:13;22.80;37.20
11491;DHT22;5802;52.832;4.758;2023-03-01T07:55:40;22.90;37.20
11491;DHT22;5802;52.832;4.758;2023-03-01T07:58:07;22.90;37.20
11491;DHT22;5802;52.832;4.758;2023-03-01T08:00:33;22.90;37.20
11491;DHT22;5802;52.832;4.758;2023-03-01T08:03:01;22.90;37.20
11491;DHT22;5802;52.832;4.758;2023-03-01T08:05:28;22.90;37.10
11491;DHT22;5802;52.832;4.758;2023-03-01T08:07:56;22.90;37.20
11491;DHT22;5802;52.832;4.758;2023-03-01T08:10:23;22.90;37.10
11491;DHT22;5802;52.832;4.758;2023-03-01T08:12:51;22.90;37.10
11491;DHT22;5802;52.832;4.758;2023-03-01T08:15:19;22.90;37.00
11491;DHT22;5802;52.832;4.758;2023-03-01T08:17:49;23.00;37.00
11491;DHT22;5802;52.832;4.758;2023-03-01T08:20:16;23.00;37.00
11491;DHT22;5802;52.832;4.758;2023-03-01T08:22:42;23.00;37.00
11491;DHT22;5802;52.832;4.758;2023-03-01T08:25:10;23.00;37.00
11491;DHT22;5802;52.832;4.758;2023-03-01T08:27:37;23.00;37.00
11491;DHT22;5802;52.832;4.758;2023-03-01T08:30:05;23.00;36.90
11491;DHT22;5802;52.832;4.758;2023-03-01T08:32:36;23.10;36.90
11491;DHT22;5802;52.832;4.758;2023-03-01T08:35:03;23.10;36.90
11491;DHT22;5802;52.832;4.758;2023-03-01T08:37:32;23.10;36.80
11491;DHT22;5802;52.832;4.758;2023-03-01T08:39:59;23.20;36.90
11491;DHT22;5802;52.832;4.758;2023-03-01T08:42:28;23.20;36.80
11491;DHT22;5802;52.832;4.758;2023-03-01T08:44:54;23.20;36.60
11491;DHT22;5802;52.832;4.758;2023-03-01T08:47:22;23.30;36.70
11491;DHT22;5802;52.832;4.758;2023-03-01T08:49:49;23.30;36.70
11491;DHT22;5802;52.832;4.758;2023-03-01T08:52:16;23.30;36.60
11491;DHT22;5802;52.832;4.758;2023-03-01T08:54:42;23.40;36.60
11491;DHT22;5802;52.832;4.758;2023-03-01T08:57:09;23.40;36.50
11491;DHT22;5802;52.832;4.758;2023-03-01T08:59:37;23.40;37.10
11491;DHT22;5802;52.832;4.758;2023-03-01T09:02:04;23.50;36.50
11491;DHT22;5802;52.832;4.758;2023-03-01T09:04:30;23.50;36.50
11491;DHT22;5802;52.832;4.758;2023-03-01T09:06:58;23.50;36.50
11491;DHT22;5802;52.832;4.758;2023-03-01T09:09:25;23.50;36.50
11491;DHT22;5802;52.832;4.758;2023-03-01T09:11:52;23.50;36.50
11491;DHT22;5802;52.832;4.758;2023-03-01T09:14:18;23.60;36.50
11491;DHT22;5802;52.832;4.758;2023-03-01T09:16:47;23.60;36.50
11491;DHT22;5802;52.832;4.758;2023-03-01T09:19:13;23.60;36.50
11491;DHT22;5802;52.832;4.758;2023-03-01T09:21:41;23.60;36.50
11491;DHT22;5802;52.832;4.758;2023-03-01T09:24:19;23.60;36.50
11491;DHT22;5802;52.832;4.758;2023-03-01T09:26:46;23.60;36.50
11491;DHT22;5802;52.832;4.758;2023-03-01T09:29:13;23.60;36.50
11491;DHT22;5802;52.832;4.758;2023-03-01T09:31:41;23.60;36.40
11491;DHT22;5802;52.832;4.758;2023-03-01T09:34:09;23.60;36.50
11491;DHT22;5802;52.832;4.758;2023-03-01T09:36:36;23.60;36.50
11491;DHT22;5802;52.832;4.758;2023-03-01T09:39:04;23.60;36.50
11491;DHT22;5802;52.832;4.758;2023-03-01T09:41:42;23.70;36.50
11491;DHT22;5802;52.832;4.758;2023-03-01T09:44:16;23.70;36.50
11491;DHT22;5802;52.832;4.758;2023-03-01T09:46:45;23.70;36.40
11491;DHT22;5802;52.832;4.758;2023-03-01T09:49:17;23.80;36.50
11491;DHT22;5802;52.832;4.758;2023-03-01T09:51:57;23.80;36.40
11491;DHT22;5802;52.832;4.758;2023-03-01T09:54:25;23.80;36.40
11491;DHT22;5802;52.832;4.758;2023-03-01T09:57:11;23.80;36.30
11491;DHT22;5802;52.832;4.758;2023-03-01T09:59:49;23.90;36.30
11491;DHT22;5802;52.832;4.758;2023-03-01T10:02:24;23.90;36.30
11491;DHT22;5802;52.832;4.758;2023-03-01T10:04:57;23.90;36.30
11491;DHT22;5802;52.832;4.758;2023-03-01T10:07:32;23.90;36.30
11491;DHT22;5802;52.832;4.758;2023-03-01T10:10:05;23.90;36.30
11491;DHT22;5802;52.832;4.758;2023-03-01T10:12:35;23.90;36.30
11491;DHT22;5802;52.832;4.758;2023-03-01T10:15:05;23.90;36.40
11491;DHT22;5802;52.832;4.758;2023-03-01T10:17:36;23.90;36.40
11491;DHT22;5802;52.832;4.758;2023-03-01T10:20:17;24.00;36.50
11491;DHT22;5802;52.832;4.758;2023-03-01T10:22:44;24.00;36.50
11491;DHT22;5802;52.832;4.758;2023-03-01T10:25:20;24.00;36.50
11491;DHT22;5802;52.832;4.758;2023-03-01T10:27:52;24.00;36.50
11491;DHT22;5802;52.832;4.758;2023-03-01T10:30:22;24.00;36.50
11491;DHT22;5802;52.832;4.758;2023-03-01T10:32:51;24.00;36.50
11491;DHT22;5802;52.832;4.758;2023-03-01T10:35:22;24.00;36.60
11491;DHT22;5802;52.832;4.758;2023-03-01T10:38:04;24.00;36.60
11491;DHT22;5802;52.832;4.758;2023-03-01T10:40:32;24.00;36.60
11491;DHT22;5802;52.832;4.758;2023-03-01T10:43:01;23.90;36.60
11491;DHT22;5802;52.832;4.758;2023-03-01T10:45:34;24.00;36.60
11491;DHT22;5802;52.832;4.758;2023-03-01T10:48:10;24.00;36.60
11491;DHT22;5802;52.832;4.758;2023-03-01T10:50:40;24.00;36.60
11491;DHT22;5802;52.832;4.758;2023-03-01T10:53:21;24.00;36.60
11491;DHT22;5802;52.832;4.758;2023-03-01T10:56:01;24.00;36.60
11491;DHT22;5802;52.832;4.758;2023-03-01T10:58:29;24.00;36.60
11491;DHT22;5802;52.832;4.758;2023-03-01T11:00:58;24.00;36.40
11491;DHT22;5802;52.832;4.758;2023-03-01T11:03:27;24.00;36.50
11491;DHT22;5802;52.832;4.758;2023-03-01T11:05:59;24.10;36.50
11491;DHT22;5802;52.832;4.758;2023-03-01T11:08:38;24.10;36.40
11491;DHT22;5802;52.832;4.758;2023-03-01T11:11:19;24.10;36.40
11491;DHT22;5802;52.832;4.758;2023-03-01T11:13:53;24.10;36.30
11491;DHT22;5802;52.832;4.758;2023-03-01T11:16:26;24.10;36.40
11491;DHT22;5802;52.832;4.758;2023-03-01T11:18:59;24.20;36.50
11491;DHT22;5802;52.832;4.758;2023-03-01T11:21:29;24.20;36.50
11491;DHT22;5802;52.832;4.758;2023-03-01T11:24:00;24.20;36.60
11491;DHT22;5802;52.832;4.758;2023-03-01T11:26:28;24.20;36.60
11491;DHT22;5802;52.832;4.758;2023-03-01T11:29:02;24.20;36.60
11491;DHT22;5802;52.832;4.758;2023-03-01T11:31:30;24.20;36.70
11491;DHT22;5802;52.832;4.758;2023-03-01T11:34:01;24.20;36.70
11491;DHT22;5802;52.832;4.758;2023-03-01T11:36:35;24.20;36.70
11491;DHT22;5802;52.832;4.758;2023-03-01T11:39:08;24.20;36.80
11491;DHT22;5802;52.832;4.758;2023-03-01T11:41:39;24.20;36.90
11491;DHT22;5802;52.832;4.758;2023-03-01T11:44:14;24.20;36.80
11491;DHT22;5802;52.832;4.758;2023-03-01T11:47:01;24.20;36.80
11491;DHT22;5802;52.832;4.758;2023-03-01T11:49:51;24.20;36.80
11491;DHT22;5802;52.832;4.758;2023-03-01T11:52:30;24.20;36.80
11491;DHT22;5802;52.832;4.758;2023-03-01T11:55:12;24.20;36.80
11491;DHT22;5802;52.832;4.758;2023-03-01T11:57:55;24.20;37.00
11491;DHT22;5802;52.832;4.758;2023-03-01T12:00:44;24.20;37.30
11491;DHT22;5802;52.832;4.758;2023-03-01T12:03:23;24.20;37.40
11491;DHT22;5802;52.832;4.758;2023-03-01T12:08:51;24.20;37.40
11491;DHT22;5802;52.832;4.758;2023-03-01T12:11:28;24.20;37.40
11491;DHT22;5802;52.832;4.758;2023-03-01T12:14:17;24.20;37.40
11491;DHT22;5802;52.832;4.758;2023-03-01T12:17:06;24.20;37.40
11491;DHT22;5802;52.832;4.758;2023-03-01T12:22:44;24.20;37.50
11491;DHT22;5802;52.832;4.758;2023-03-01T12:25:21;24.20;37.40
11491;DHT22;5802;52.832;4.758;2023-03-01T12:28:08;24.30;37.40
11491;DHT22;5802;52.832;4.758;2023-03-01T12:30:53;24.30;37.30
11491;DHT22;5802;52.832;4.758;2023-03-01T12:33:29;24.30;37.30
11491;DHT22;5802;52.832;4.758;2023-03-01T12:36:16;24.30;37.30
11491;DHT22;5802;52.832;4.758;2023-03-01T12:38:49;24.30;37.20
11491;DHT22;5802;52.832;4.758;2023-03-01T12:44:28;24.30;37.20
11491;DHT22;5802;52.832;4.758;2023-03-01T12:47:09;24.30;37.20
11491;DHT22;5802;52.832;4.758;2023-03-01T12:49:40;24.30;37.10
11491;DHT22;5802;52.832;4.758;2023-03-01T12:52:11;24.30;37.10
11491;DHT22;5802;52.832;4.758;2023-03-01T12:54:41;24.30;37.00
11491;DHT22;5802;52.832;4.758;2023-03-01T12:57:14;24.30;37.00
11491;DHT22;5802;52.832;4.758;2023-03-01T12:59:49;24.30;37.00
11491;DHT22;5802;52.832;4.758;2023-03-01T13:02:23;24.40;37.00
11491;DHT22;5802;52.832;4.758;2023-03-01T13:05:00;24.30;36.90
11491;DHT22;5802;52.832;4.758;2023-03-01T13:07:36;24.40;36.90
11491;DHT22;5802;52.832;4.758;2023-03-01T13:10:20;24.40;36.90
11491;DHT22;5802;52.832;4.758;2023-03-01T13:13:01;24.40;36.90
11491;DHT22;5802;52.832;4.758;2023-03-01T13:15:31;24.40;36.40
11491;DHT22;5802;52.832;4.758;2023-03-01T13:17:59;24.40;35.80
11491;DHT22;5802;52.832;4.758;2023-03-01T13:20:31;24.40;35.90
11491;DHT22;5802;52.832;4.758;2023-03-01T13:23:07;24.50;36.00
11491;DHT22;5802;52.832;4.758;2023-03-01T13:26:03;24.50;36.10
11491;DHT22;5802;52.832;4.758;2023-03-01T13:28:52;24.50;36.10
11491;DHT22;5802;52.832;4.758;2023-03-01T13:34:59;24.40;35.90
11491;DHT22;5802;52.832;4.758;2023-03-01T13:37:36;24.40;35.90
11491;DHT22;5802;52.832;4.758;2023-03-01T13:42:48;24.40;36.10
11491;DHT22;5802;52.832;4.758;2023-03-01T13:45:20;24.40;36.20
11491;DHT22;5802;52.832;4.758;2023-03-01T13:47:52;24.40;36.10
11491;DHT22;5802;52.832;4.758;2023-03-01T13:50:23;24.40;36.10
11491;DHT22;5802;52.832;4.758;2023-03-01T13:52:54;24.40;36.20
11491;DHT22;5802;52.832;4.758;2023-03-01T13:55:26;24.40;36.20
11491;DHT22;5802;52.832;4.758;2023-03-01T13:57:55;24.40;35.80
11491;DHT22;5802;52.832;4.758;2023-03-01T14:00:34;24.40;35.90
11491;DHT22;5802;52.832;4.758;2023-03-01T14:03:10;24.40;36.00
11491;DHT22;5802;52.832;4.758;2023-03-01T14:05:38;24.40;35.60
11491;DHT22;5802;52.832;4.758;2023-03-01T14:08:05;24.30;35.00
11491;DHT22;5802;52.832;4.758;2023-03-01T14:10:51;24.30;35.20
11491;DHT22;5802;52.832;4.758;2023-03-01T14:13:29;24.30;35.40
11491;DHT22;5802;52.832;4.758;2023-03-01T14:16:15;24.30;35.50
11491;DHT22;5802;52.832;4.758;2023-03-01T14:18:49;24.30;35.60
11491;DHT22;5802;52.832;4.758;2023-03-01T14:21:19;24.30;35.00
11491;DHT22;5802;52.832;4.758;2023-03-01T14:23:48;24.20;34.30
11491;DHT22;5802;52.832;4.758;2023-03-01T14:26:20;24.30;33.90
11491;DHT22;5802;52.832;4.758;2023-03-01T14:28:48;24.20;33.40
11491;DHT22;5802;52.832;4.758;2023-03-01T14:31:38;24.20;32.70
11491;DHT22;5802;52.832;4.758;2023-03-01T14:34:05;24.20;32.90
11491;DHT22;5802;52.832;4.758;2023-03-01T14:36:33;24.20;33.20
11491;DHT22;5802;52.832;4.758;2023-03-01T14:39:00;24.10;33.40
11491;DHT22;5802;52.832;4.758;2023-03-01T14:41:33;24.10;33.70
11491;DHT22;5802;52.832;4.758;2023-03-01T14:44:03;24.10;33.90
11491;DHT22;5802;52.832;4.758;2023-03-01T14:46:34;24.10;34.20
11491;DHT22;5802;52.832;4.758;2023-03-01T14:49:05;24.00;34.30
11491;DHT22;5802;52.832;4.758;2023-03-01T14:51:36;24.00;34.50
11491;DHT22;5802;52.832;4.758;2023-03-01T14:54:05;24.00;34.50
11491;DHT22;5802;52.832;4.758;2023-03-01T14:56:45;24.00;34.70
11491;DHT22;5802;52.832;4.758;2023-03-01T14:59:11;24.00;34.80
11491;DHT22;5802;52.832;4.758;2023-03-01T15:01:40;24.00;34.60
11491;DHT22;5802;52.832;4.758;2023-03-01T15:04:11;24.00;34.70
11491;DHT22;5802;52.832;4.758;2023-03-01T15:06:38;24.00;34.80
11491;DHT22;5802;52.832;4.758;2023-03-01T15:09:05;24.00;34.70
11491;DHT22;5802;52.832;4.758;2023-03-01T15:11:34;24.00;34.60
11491;DHT22;5802;52.832;4.758;2023-03-01T15:14:27;24.00;34.80
11491;DHT22;5802;52.832;4.758;2023-03-01T15:16:54;24.00;34.80
11491;DHT22;5802;52.832;4.758;2023-03-01T15:19:23;23.90;34.90
11491;DHT22;5802;52.832;4.758;2023-03-01T15:21:53;23.90;34.70
11491;DHT22;5802;52.832;4.758;2023-03-01T15:24:22;23.90;34.80
11491;DHT22;5802;52.832;4.758;2023-03-01T15:26:51;23.90;34.60
11491;DHT22;5802;52.832;4.758;2023-03-01T15:29:22;23.90;34.40
11491;DHT22;5802;52.832;4.758;2023-03-01T15:31:58;23.90;34.50
11491;DHT22;5802;52.832;4.758;2023-03-01T15:34:26;23.90;34.30
11491;DHT22;5802;52.832;4.758;2023-03-01T15:36:55;23.90;33.60
11491;DHT22;5802;52.832;4.758;2023-03-01T15:39:38;23.80;33.70
11491;DHT22;5802;52.832;4.758;2023-03-01T15:44:36;23.80;34.00
11491;DHT22;5802;52.832;4.758;2023-03-01T15:47:20;23.80;34.10
11491;DHT22;5802;52.832;4.758;2023-03-01T15:49:48;23.80;34.20
11491;DHT22;5802;52.832;4.758;2023-03-01T15:52:21;23.80;34.20
11491;DHT22;5802;52.832;4.758;2023-03-01T15:54:54;23.80;34.30
11491;DHT22;5802;52.832;4.758;2023-03-01T15:57:22;23.70;34.20
11491;DHT22;5802;52.832;4.758;2023-03-01T15:59:49;23.70;34.30
11491;DHT22;5802;52.832;4.758;2023-03-01T16:02:17;23.70;34.20
11491;DHT22;5802;52.832;4.758;2023-03-01T16:04:46;23.70;34.30
11491;DHT22;5802;52.832;4.758;2023-03-01T16:07:13;23.70;34.50
11491;DHT22;5802;52.832;4.758;2023-03-01T16:09:39;23.70;34.60
11491;DHT22;5802;52.832;4.758;2023-03-01T16:12:11;23.70;34.70
11491;DHT22;5802;52.832;4.758;2023-03-01T16:14:39;23.60;34.70
11491;DHT22;5802;52.832;4.758;2023-03-01T16:17:06;23.60;34.30
11491;DHT22;5802;52.832;4.758;2023-03-01T16:19:36;23.60;33.90
11491;DHT22;5802;52.832;4.758;2023-03-01T16:22:03;23.60;33.90